Time;durP1;ratioP1;P1;durP2;ratioP2;P2;SDS_P1;SDS_P2;PMS_P1;PMS_P2;Temp;Humidity;BMP_temperature;BMP_pressure;BME280_temperature;BME280_humidity;BME280_pressure;Samples;Min_cycle;Max_cycle;Signal;HPM_P1;HPM_P2
2021/08/01 00:01:20;;;;;;;1.90;1.80;;;;;;;14.96;100.00;99831.13;5011460;28;20674;-72
2021/08/01 00:03:45;;;;;;;1.70;1.60;;;;;;;14.85;100.00;99872.13;5011525;28;20164;-72
2021/08/01 00:06:10;;;;;;;2.07;1.97;;;;;;;14.80;100.00;99853.13;5011201;28;20207;-72
2021/08/01 00:08:39;;;;;;;1.87;1.77;;;;;;;14.73;100.00;99830.94;5011644;28;20745;-72
2021/08/01 00:11:05;;;;;;;1.90;1.70;;;;;;;14.73;100.00;99815.25;5011362;28;20231;-72
2021/08/01 00:13:30;;;;;;;6.00;2.30;;;;;;;14.71;100.00;99808.50;5011061;28;20172;-72
2021/08/01 00:15:55;;;;;;;1.53;1.40;;;;;;;14.72;100.00;99802.66;5011453;28;20195;-72
2021/08/01 00:18:21;;;;;;;2.00;1.50;;;;;;;14.76;100.00;99798.06;5011185;28;20168;-72
2021/08/01 00:20:47;;;;;;;1.60;1.50;;;;;;;14.79;100.00;99786.34;5011201;28;20255;-72
2021/08/01 00:23:12;;;;;;;2.10;1.90;;;;;;;14.80;100.00;99826.44;5010925;28;20173;-72
2021/08/01 00:25:38;;;;;;;1.50;1.40;;;;;;;14.79;100.00;99797.34;5026109;28;20212;-72
2021/08/01 00:28:03;;;;;;;2.60;2.20;;;;;;;14.78;100.00;99800.44;5011065;28;20226;-72
2021/08/01 00:30:28;;;;;;;2.47;1.73;;;;;;;14.79;100.00;99810.28;5011132;28;20192;-72
2021/08/01 00:32:54;;;;;;;2.00;1.90;;;;;;;14.81;100.00;99835.47;5011064;28;20177;-72
2021/08/01 00:35:19;;;;;;;2.13;1.80;;;;;;;14.83;100.00;99811.97;5010920;28;20168;-72
2021/08/01 00:37:45;;;;;;;2.23;2.00;;;;;;;14.84;100.00;99807.25;5010972;28;20228;-72
2021/08/01 00:40:10;;;;;;;2.20;2.07;;;;;;;14.87;100.00;99782.59;5010778;28;20180;-72
2021/08/01 00:42:36;;;;;;;1.57;1.43;;;;;;;14.85;100.00;99776.66;5010800;28;20513;-73
2021/08/01 00:45:02;;;;;;;4.70;3.60;;;;;;;14.84;100.00;99774.25;5010983;28;20569;-73
2021/08/01 00:47:27;;;;;;;2.03;1.90;;;;;;;14.81;100.00;99755.72;5010863;28;20196;-73
2021/08/01 00:49:53;;;;;;;1.40;1.30;;;;;;;14.83;100.00;99769.91;5010993;28;20223;-72
2021/08/01 00:52:18;;;;;;;1.60;1.50;;;;;;;14.85;100.00;99789.59;5011112;28;20673;-72
2021/08/01 00:54:44;;;;;;;2.40;2.20;;;;;;;14.80;100.00;99782.44;5010939;28;20666;-72
2021/08/01 00:57:09;;;;;;;2.10;2.00;;;;;;;14.81;100.00;99767.53;5010824;28;20255;-72
2021/08/01 00:59:38;;;;;;;1.93;1.67;;;;;;;14.81;100.00;99770.28;5013444;28;20243;-72
2021/08/01 01:02:09;;;;;;;1.40;1.30;;;;;;;14.80;100.00;99782.44;5014729;28;20179;-72
2021/08/01 01:05:07;;;;;;;1.93;1.83;;;;;;;14.79;100.00;99761.59;5014559;28;20689;-72
2021/08/01 01:07:44;;;;;;;1.70;1.60;;;;;;;14.79;100.00;99741.53;5017503;28;20258;-72
2021/08/01 01:10:27;;;;;;;2.40;2.00;;;;;;;14.77;100.00;99730.91;5014688;28;20218;-72
2021/08/01 01:12:58;;;;;;;1.37;1.27;;;;;;;14.76;100.00;99726.56;5029658;28;20264;-72
2021/08/01 01:15:25;;;;;;;2.07;1.90;;;;;;;14.69;100.00;99711.84;5014332;28;20263;-71
2021/08/01 01:17:54;;;;;;;2.00;1.90;;;;;;;14.63;100.00;99716.81;5014477;28;20180;-72
2021/08/01 01:20:35;;;;;;;2.10;1.90;;;;;;;14.58;100.00;99720.63;5014287;28;20203;-72
2021/08/01 01:23:00;;;;;;;2.27;1.87;;;;;;;14.56;100.00;99720.16;5014304;28;20161;-72
2021/08/01 01:25:36;;;;;;;1.93;1.80;;;;;;;14.52;100.00;99733.03;5029310;28;20551;-72
2021/08/01 01:28:13;;;;;;;2.00;1.80;;;;;;;14.52;100.00;99721.25;5029765;28;20535;-71
2021/08/01 01:30:48;;;;;;;1.83;1.53;;;;;;;14.48;100.00;99743.16;5014259;28;20631;-72
2021/08/01 01:33:18;;;;;;;2.33;2.13;;;;;;;14.45;100.00;99738.34;5013949;28;20200;-73
2021/08/01 01:35:49;;;;;;;1.53;1.43;;;;;;;14.41;100.00;99731.94;5014254;28;20176;-72
2021/08/01 01:38:15;;;;;;;1.73;1.50;;;;;;;14.36;100.00;99740.47;5013801;28;20188;-72
2021/08/01 01:40:41;;;;;;;1.20;1.17;;;;;;;14.34;100.00;99734.53;5013899;28;20669;-72
2021/08/01 01:43:07;;;;;;;1.17;1.07;;;;;;;14.27;100.00;99724.13;5013722;28;20181;-72
2021/08/01 01:45:35;;;;;;;2.03;1.90;;;;;;;14.22;100.00;99723.59;5014506;28;20193;-73
2021/08/01 01:48:01;;;;;;;2.57;2.37;;;;;;;14.16;100.00;99720.31;5015639;28;20694;-72
2021/08/01 01:50:27;;;;;;;1.97;1.77;;;;;;;14.17;100.00;99701.88;5013919;28;20169;-73
2021/08/01 01:52:54;;;;;;;64.33;6.07;;;;;;;14.14;100.00;99708.88;5013643;28;20177;-72
2021/08/01 01:55:21;;;;;;;1504.17;747.73;;;;;;;14.12;100.00;99705.69;5013619;28;20176;-73
2021/08/01 01:57:47;;;;;;;2.30;2.10;;;;;;;14.10;100.00;99716.22;5013654;28;20181;-72
2021/08/01 02:00:13;;;;;;;4.13;2.80;;;;;;;14.09;100.00;99709.16;5013224;28;20177;-73
2021/08/01 02:02:38;;;;;;;211.60;23.40;;;;;;;14.12;100.00;99707.63;5012795;28;20264;-72
2021/08/01 02:05:05;;;;;;;155.93;73.53;;;;;;;14.12;100.00;99710.38;5012914;28;20308;-72
2021/08/01 02:07:31;;;;;;;72.80;16.30;;;;;;;14.09;100.00;99714.63;5012911;28;20205;-72
2021/08/01 02:10:04;;;;;;;3.33;3.03;;;;;;;14.11;100.00;99717.84;5011893;28;20204;-72
2021/08/01 02:12:36;;;;;;;2.57;2.37;;;;;;;14.10;100.00;99721.72;5012837;28;20168;-72
2021/08/01 02:15:13;;;;;;;3.03;2.73;;;;;;;14.10;100.00;99746.44;5012723;28;20188;-72
2021/08/01 02:17:43;;;;;;;3.10;2.57;;;;;;;14.11;100.00;99750.00;5012186;28;20180;-73
2021/08/01 02:20:11;;;;;;;2.83;2.63;;;;;;;14.10;100.00;99731.91;5010244;28;20189;-72
2021/08/01 02:22:37;;;;;;;3.10;2.90;;;;;;;14.11;100.00;99728.03;5013142;28;20172;-73
2021/08/01 02:25:05;;;;;;;86.00;20.50;;;;;;;14.09;100.00;99725.63;5012957;28;20246;-73
2021/08/01 02:27:33;;;;;;;2.40;2.20;;;;;;;14.09;100.00;99709.16;5012953;28;20204;-73
2021/08/01 02:30:01;;;;;;;4.70;3.17;;;;;;;14.05;100.00;99700.03;5013014;28;20173;-73
2021/08/01 02:32:29;;;;;;;2.63;2.37;;;;;;;13.99;100.00;99693.97;5012907;28;20540;-73
2021/08/01 02:34:55;;;;;;;2.30;2.10;;;;;;;14.04;100.00;99703.94;5013003;28;20169;-73
2021/08/01 02:37:22;;;;;;;4.27;2.53;;;;;;;14.04;100.00;99714.13;5012823;28;20180;-73
2021/08/01 02:39:48;;;;;;;2.90;2.60;;;;;;;14.02;100.00;99700.69;5012963;28;20177;-73
2021/08/01 02:42:14;;;;;;;2.10;1.90;;;;;;;14.04;100.00;99716.84;5012778;28;20183;-73
2021/08/01 02:44:41;;;;;;;3.60;3.30;;;;;;;14.02;100.00;99719.13;5012784;28;20180;-73
2021/08/01 02:47:08;;;;;;;3.10;2.80;;;;;;;14.00;100.00;99731.28;5012582;28;20204;-73
2021/08/01 02:49:39;;;;;;;4.07;3.77;;;;;;;14.00;100.00;99733.22;5012994;28;20770;-72
2021/08/01 02:52:07;;;;;;;3.47;3.17;;;;;;;13.99;100.00;99731.63;5012524;28;20299;-72
2021/08/01 02:54:34;;;;;;;3.57;3.27;;;;;;;13.97;100.00;99733.94;5012637;28;20192;-73
2021/08/01 02:57:03;;;;;;;2.70;2.50;;;;;;;13.97;100.00;99745.72;5012522;28;20190;-73
2021/08/01 02:59:32;;;;;;;2.60;2.40;;;;;;;13.96;100.00;99746.06;5012485;28;20212;-73
2021/08/01 03:02:00;;;;;;;6.10;3.20;;;;;;;13.94;100.00;99738.19;5012373;28;20238;-73
2021/08/01 03:04:26;;;;;;;3.30;3.00;;;;;;;13.89;100.00;99743.94;5012366;28;20187;-73
2021/08/01 03:06:53;;;;;;;3.43;3.13;;;;;;;13.85;100.00;99742.22;5012089;28;20254;-73
2021/08/01 03:09:18;;;;;;;3.27;2.93;;;;;;;13.85;100.00;99748.50;5026870;28;20315;-72
2021/08/01 03:11:44;;;;;;;2.53;2.33;;;;;;;13.84;100.00;99738.69;5011482;28;20630;-73
2021/08/01 03:14:10;;;;;;;3.27;2.93;;;;;;;13.87;100.00;99739.91;5011661;28;20215;-73
2021/08/01 03:16:36;;;;;;;3.20;2.90;;;;;;;13.89;100.00;99743.94;5011465;28;20192;-73
2021/08/01 03:19:01;;;;;;;3.67;3.37;;;;;;;13.93;100.00;99746.78;5026995;28;20295;-72
2021/08/01 03:21:26;;;;;;;3.87;3.57;;;;;;;13.94;100.00;99757.41;5010944;28;20172;-72
2021/08/01 03:23:52;;;;;;;3.30;3.00;;;;;;;13.97;100.00;99764.94;5011602;28;20177;-72
2021/08/01 03:26:17;;;;;;;3.60;3.30;;;;;;;14.00;100.00;99772.47;5011540;28;20673;-72
2021/08/01 03:28:43;;;;;;;4.53;3.13;;;;;;;13.96;100.00;99768.84;5011426;28;20177;-73
2021/08/01 03:31:08;;;;;;;3.67;3.00;;;;;;;13.95;100.00;99789.22;5011159;28;20241;-73
2021/08/01 03:33:33;;;;;;;3.73;3.40;;;;;;;13.95;100.00;99791.97;5011054;28;20537;-75
2021/08/01 03:35:59;;;;;;;2.67;2.47;;;;;;;13.98;100.00;99787.72;5011304;28;20189;-72
2021/08/01 03:38:24;;;;;;;3.60;3.30;;;;;;;13.98;100.00;99793.19;5010878;28;20250;-73
2021/08/01 03:40:50;;;;;;;3.07;2.87;;;;;;;14.03;100.00;99786.66;5011104;28;20177;-72
2021/08/01 03:43:15;;;;;;;3.60;3.30;;;;;;;14.05;100.00;99785.19;5010909;28;20274;-73
2021/08/01 03:45:41;;;;;;;3.20;3.00;;;;;;;14.08;100.00;99794.66;5010989;28;20296;-73
2021/08/01 03:48:06;;;;;;;3.83;3.50;;;;;;;14.11;100.00;99785.72;5011078;28;20203;-73
2021/08/01 03:50:31;;;;;;;4.50;3.97;;;;;;;14.15;100.00;99767.38;5011335;28;20251;-72
2021/08/01 03:52:56;;;;;;;3.60;3.30;;;;;;;14.18;100.00;99783.97;5010765;28;20172;-72
2021/08/01 03:55:22;;;;;;;4.97;3.47;;;;;;;14.22;100.00;99793.09;5010912;28;20179;-73
2021/08/01 03:57:47;;;;;;;6.77;3.60;;;;;;;14.26;100.00;99795.94;5010864;28;20180;-73
2021/08/01 04:00:13;;;;;;;3.47;3.17;;;;;;;14.28;100.00;99783.44;5010781;28;20619;-73
2021/08/01 04:02:38;;;;;;;2.87;2.57;;;;;;;14.30;100.00;99791.31;5010787;28;20183;-72
2021/08/01 04:05:05;;;;;;;3.17;2.93;;;;;;;14.32;100.00;99782.72;5010882;28;20173;-73
2021/08/01 04:07:30;;;;;;;2.60;2.33;;;;;;;14.35;100.00;99793.03;5010582;28;20250;-73
2021/08/01 04:09:56;;;;;;;2.83;2.63;;;;;;;14.35;100.00;99787.53;5010668;28;20204;-71
2021/08/01 04:12:22;;;;;;;3.43;2.57;;;;;;;14.38;100.00;99786.81;5010410;28;20223;-72
2021/08/01 04:14:47;;;;;;;2.50;2.40;;;;;;;14.37;100.00;99793.47;5010504;28;20623;-73
2021/08/01 04:17:12;;;;;;;3.00;2.70;;;;;;;14.37;100.00;99786.03;5010924;28;20183;-72
2021/08/01 04:19:38;;;;;;;3.23;2.97;;;;;;;14.42;100.00;99784.97;5010754;28;20187;-73
2021/08/01 04:22:04;;;;;;;3.07;2.80;;;;;;;14.46;100.00;99785.88;5010171;28;20578;-73
2021/08/01 04:24:29;;;;;;;2.33;2.13;;;;;;;14.51;100.00;99780.13;5011042;28;20924;-73
2021/08/01 04:26:55;;;;;;;4.23;3.83;;;;;;;14.55;100.00;99770.00;5010266;28;20212;-73
2021/08/01 04:29:20;;;;;;;4.00;3.70;;;;;;;14.57;100.00;99774.00;5010491;28;20204;-73
2021/08/01 04:31:46;;;;;;;3.00;2.73;;;;;;;14.61;100.00;99771.38;5010299;28;20210;-74
2021/08/01 04:34:11;;;;;;;3.57;3.27;;;;;;;14.69;100.00;99775.88;5030236;28;20267;-71
2021/08/01 04:36:37;;;;;;;3.70;3.37;;;;;;;14.78;100.00;99762.75;5017506;28;20295;-72
2021/08/01 04:39:02;;;;;;;4.63;4.23;;;;;;;14.85;100.00;99768.41;5016489;28;20234;-73
2021/08/01 04:41:28;;;;;;;4.20;3.87;;;;;;;14.91;100.00;99771.69;5016467;28;20183;-72
2021/08/01 04:43:53;;;;;;;4.37;3.50;;;;;;;14.94;100.00;99761.94;5017228;28;20172;-73
2021/08/01 04:46:18;;;;;;;3.60;3.30;;;;;;;14.97;100.00;99758.47;5016737;28;20678;-73
2021/08/01 04:48:44;;;;;;;4.37;3.97;;;;;;;15.01;100.00;99760.13;5016999;28;20207;-73
2021/08/01 04:51:09;;;;;;;5.40;3.60;;;;;;;15.05;100.00;99754.72;5016829;28;20573;-73
2021/08/01 04:53:36;;;;;;;4.77;4.30;;;;;;;15.10;100.00;99765.44;5016967;28;20663;-72
2021/08/01 04:56:02;;;;;;;3.70;3.47;;;;;;;15.16;100.00;99762.03;5016764;28;20251;-72
2021/08/01 04:58:27;;;;;;;3.67;3.37;;;;;;;15.21;100.00;99760.19;5016847;28;20263;-74
2021/08/01 05:00:52;;;;;;;3.90;3.60;;;;;;;15.28;100.00;99763.09;5016584;28;20180;-72
2021/08/01 05:03:18;;;;;;;5.30;4.90;;;;;;;15.30;100.00;99761.56;5016619;28;20329;-73
2021/08/01 05:05:43;;;;;;;3.93;3.53;;;;;;;15.37;100.00;99763.69;5016706;28;20208;-74
2021/08/01 05:08:08;;;;;;;4.93;4.53;;;;;;;15.44;100.00;99794.91;5016621;28;20413;-73
2021/08/01 05:10:34;;;;;;;4.70;4.30;;;;;;;15.50;100.00;99769.88;5016513;28;20667;-73
2021/08/01 05:12:59;;;;;;;6.47;5.07;;;;;;;15.56;100.00;99784.94;5016518;28;20255;-73
2021/08/01 05:15:25;;;;;;;4.57;4.17;;;;;;;15.63;100.00;99768.63;5031615;28;20275;-72
2021/08/01 05:17:50;;;;;;;4.33;4.03;;;;;;;15.68;100.00;99766.34;5016747;28;20284;-73
2021/08/01 05:20:16;;;;;;;2.20;2.10;;;;;;;15.74;100.00;99758.59;5016789;28;20181;-72
2021/08/01 05:22:42;;;;;;;5.77;5.27;;;;;;;15.74;100.00;99736.56;5016558;28;20176;-73
2021/08/01 05:25:08;;;;;;;6.33;4.47;;;;;;;15.77;100.00;99738.59;5015244;28;20185;-72
2021/08/01 05:27:34;;;;;;;6.53;5.93;;;;;;;15.77;100.00;99735.84;5016655;28;20258;-75
2021/08/01 05:29:59;;;;;;;5.57;5.07;;;;;;;15.82;100.00;99740.25;5016792;28;20180;-72
2021/08/01 05:32:25;;;;;;;5.57;4.80;;;;;;;15.85;100.00;99743.06;5016263;28;20802;-72
2021/08/01 05:34:51;;;;;;;9.60;3.73;;;;;;;15.85;100.00;99725.75;5016409;28;20176;-72
2021/08/01 05:37:16;;;;;;;4.17;3.77;;;;;;;15.87;100.00;99724.22;5031262;28;20184;-72
2021/08/01 05:39:42;;;;;;;3.07;2.80;;;;;;;15.88;100.00;99725.03;5016572;28;20512;-72
2021/08/01 05:42:07;;;;;;;5.27;4.77;;;;;;;15.89;100.00;99721.91;5015877;28;20230;-72
2021/08/01 05:44:33;;;;;;;5.77;5.27;;;;;;;15.90;100.00;99717.97;5015694;28;20176;-72
2021/08/01 05:46:59;;;;;;;5.00;3.63;;;;;;;15.92;100.00;99736.94;5013251;28;20207;-73
2021/08/01 05:49:24;;;;;;;5.37;4.97;;;;;;;15.90;100.00;99717.19;5013243;28;20263;-72
2021/08/01 05:51:50;;;;;;;6.57;5.07;;;;;;;15.89;100.00;99727.41;5012854;28;20172;-72
2021/08/01 05:54:15;;;;;;;5.83;5.23;;;;;;;15.92;100.00;99729.47;5013028;28;20223;-72
2021/08/01 05:56:40;;;;;;;3.47;3.17;;;;;;;15.91;100.00;99724.28;5013250;28;20180;-72
2021/08/01 05:59:06;;;;;;;6.20;4.77;;;;;;;15.87;100.00;99723.44;5013200;28;20195;-72
2021/08/01 06:01:31;;;;;;;4.50;4.10;;;;;;;15.85;100.00;99720.25;5012590;28;20215;-72
2021/08/01 06:03:56;;;;;;;5.87;5.40;;;;;;;15.84;100.00;99726.91;5013060;28;20535;-71
2021/08/01 06:06:25;;;;;;;7.13;6.53;;;;;;;15.87;100.00;99724.22;5012724;28;20208;-71
2021/08/01 06:08:51;;;;;;;5.93;5.33;;;;;;;15.90;100.00;99720.72;5012800;28;20271;-71
2021/08/01 06:11:18;;;;;;;6.17;5.67;;;;;;;15.87;100.00;99724.22;5012707;28;20172;-71
2021/08/01 06:13:44;;;;;;;5.47;5.00;;;;;;;15.93;100.00;99727.50;5012719;28;20176;-71
2021/08/01 06:16:11;;;;;;;4.93;4.53;;;;;;;15.89;100.00;99732.91;5012622;28;20195;-70
2021/08/01 06:18:37;;;;;;;6.43;5.93;;;;;;;15.86;100.00;99736.41;5012679;28;20168;-71
2021/08/01 06:21:13;;;;;;;5.40;5.00;;;;;;;15.92;100.00;99728.66;5012750;28;20208;-71
2021/08/01 06:23:39;;;;;;;5.73;5.27;;;;;;;15.91;100.00;99727.88;5012631;28;20179;-71
2021/08/01 06:26:05;;;;;;;3.93;3.60;;;;;;;15.92;100.00;99725.91;5012565;28;20212;-71
2021/08/01 06:28:31;;;;;;;6.07;5.53;;;;;;;15.91;100.00;99732.53;5012518;28;20181;-71
2021/08/01 06:30:58;;;;;;;6.13;5.53;;;;;;;15.96;100.00;99759.81;5012435;28;20185;-71
2021/08/01 06:33:23;;;;;;;6.60;6.00;;;;;;;15.99;100.00;99748.06;5012157;28;20180;-71
2021/08/01 06:35:49;;;;;;;6.13;5.60;;;;;;;16.09;100.00;99743.94;5012292;28;20177;-70
2021/08/01 06:38:14;;;;;;;6.83;6.23;;;;;;;16.06;100.00;99726.16;5012272;28;20184;-72
2021/08/01 06:40:39;;;;;;;5.83;5.27;;;;;;;16.14;100.00;99735.34;5012339;28;20310;-71
2021/08/01 06:43:05;;;;;;;5.93;5.43;;;;;;;16.21;100.00;99733.53;5011911;28;20173;-71
2021/08/01 06:45:30;;;;;;;4.73;4.33;;;;;;;16.17;100.00;99726.34;5012043;28;20276;-71
2021/08/01 06:47:55;;;;;;;5.23;4.73;;;;;;;16.20;100.00;99728.34;5012167;28;20181;-71
2021/08/01 06:50:21;;;;;;;5.60;5.10;;;;;;;16.24;100.00;99734.75;5012272;28;20171;-71
2021/08/01 06:52:46;;;;;;;7.97;5.17;;;;;;;16.27;100.00;99725.75;5011808;28;20575;-71
2021/08/01 06:55:12;;;;;;;6.10;5.60;;;;;;;16.30;100.00;99730.53;5011979;28;20173;-70
2021/08/01 06:57:38;;;;;;;6.83;6.23;;;;;;;16.30;100.00;99728.56;5011636;28;20695;-71
2021/08/01 07:00:04;;;;;;;6.20;5.60;;;;;;;16.32;100.00;99728.19;5011961;28;20306;-72
2021/08/01 07:02:30;;;;;;;6.07;5.57;;;;;;;16.38;100.00;99736.97;5011433;28;20180;-71
2021/08/01 07:04:57;;;;;;;5.87;5.37;;;;;;;16.45;100.00;99740.63;5012026;28;20591;-72
2021/08/01 07:07:22;;;;;;;7.17;6.57;;;;;;;16.51;100.00;99741.13;5011584;28;20230;-72
2021/08/01 07:09:48;;;;;;;7.53;6.83;;;;;;;16.52;100.00;99737.22;5011882;28;20282;-71
2021/08/01 07:12:13;;;;;;;6.63;6.00;;;;;;;16.55;100.00;99736.47;5011424;28;20168;-71
2021/08/01 07:14:38;;;;;;;5.93;5.40;;;;;;;16.55;100.00;99731.75;5011443;28;20571;-72
2021/08/01 07:17:04;;;;;;;8.53;6.67;;;;;;;16.59;100.00;99726.28;5011925;28;20323;-71
2021/08/01 07:19:29;;;;;;;6.07;5.57;;;;;;;16.66;100.00;99724.44;5012186;28;20443;-72
2021/08/01 07:21:54;;;;;;;6.33;4.70;;;;;;;16.65;100.00;99725.63;5011383;28;20307;-71
2021/08/01 07:24:20;;;;;;;6.07;5.30;;;;;;;16.70;100.00;99732.00;5011583;28;20536;-72
2021/08/01 07:26:47;;;;;;;4.57;4.17;;;;;;;16.81;100.00;99804.72;5008860;28;20204;-72
2021/08/01 07:29:14;;;;;;;6.57;5.97;;;;;;;16.85;99.86;99795.31;5011822;28;20180;-71
2021/08/01 07:31:39;;;;;;;6.63;6.03;;;;;;;16.89;99.19;99778.81;5011709;28;20200;-72
2021/08/01 07:34:04;;;;;;;5.17;4.67;;;;;;;16.95;97.65;99777.34;5011899;28;20632;-72
2021/08/01 07:36:30;;;;;;;6.40;4.90;;;;;;;16.95;96.77;99761.59;5011761;28;20173;-72
2021/08/01 07:38:55;;;;;;;4.10;3.80;;;;;;;17.05;97.87;99743.56;5026617;28;20714;-72
2021/08/01 07:41:20;;;;;;;7.43;6.73;;;;;;;17.13;97.37;99723.19;5007817;28;20185;-72
2021/08/01 07:43:46;;;;;;;11.17;5.20;;;;;;;17.27;96.24;99713.53;5011529;28;20271;-73
2021/08/01 07:46:11;;;;;;;7.33;6.73;;;;;;;17.26;95.52;99715.50;5026648;28;20188;-73
2021/08/01 07:48:36;;;;;;;5.80;5.30;;;;;;;17.36;95.58;99719.53;5011629;28;20263;-72
2021/08/01 07:51:02;;;;;;;233.40;56.70;;;;;;;17.51;95.53;99727.66;5011532;28;20168;-72
2021/08/01 07:53:28;;;;;;;6.43;5.93;;;;;;;17.66;92.69;99727.84;5011776;28;20255;-73
2021/08/01 07:55:53;;;;;;;5.93;5.40;;;;;;;17.72;89.76;99726.34;5011529;28;20580;-72
2021/08/01 07:58:18;;;;;;;5.13;4.73;;;;;;;17.74;90.71;99729.53;5011341;28;20169;-73
2021/08/01 08:00:44;;;;;;;5.00;4.33;;;;;;;17.78;91.20;99724.81;5011473;28;20605;-71
2021/08/01 08:03:09;;;;;;;4.40;4.00;;;;;;;17.82;90.36;99726.47;5011351;28;20177;-74
2021/08/01 08:05:34;;;;;;;8.63;5.10;;;;;;;17.80;90.29;99723.31;5011255;28;20176;-74
2021/08/01 08:08:00;;;;;;;5.77;5.27;;;;;;;17.76;87.33;99716.13;5010776;28;20605;-72
2021/08/01 08:10:25;;;;;;;4.53;4.13;;;;;;;17.77;88.50;99721.28;5011281;28;20183;-72
2021/08/01 08:12:51;;;;;;;4.07;3.77;;;;;;;17.71;89.60;99714.50;5011091;28;20235;-73
2021/08/01 08:15:16;;;;;;;3.00;2.80;;;;;;;17.77;89.30;99720.47;5011316;28;20188;-73
2021/08/01 08:17:42;;;;;;;4.73;3.87;;;;;;;17.86;87.32;99720.19;5011474;28;20620;-73
2021/08/01 08:20:09;;;;;;;3.90;3.60;;;;;;;17.90;85.97;99719.03;5011194;28;20176;-72
2021/08/01 08:22:34;;;;;;;4.77;3.87;;;;;;;17.87;86.61;99707.97;5011054;28;20173;-73
2021/08/01 08:25:00;;;;;;;4.90;4.50;;;;;;;17.91;87.23;99714.31;5011109;28;20176;-73
2021/08/01 08:27:25;;;;;;;4.07;3.67;;;;;;;18.13;86.07;99719.69;5011201;28;20218;-74
2021/08/01 08:29:50;;;;;;;5.07;3.20;;;;;;;18.22;85.00;99719.38;5011066;28;20632;-73
2021/08/01 08:32:16;;;;;;;4.23;3.93;;;;;;;18.19;84.37;99714.59;5010915;28;20469;-73
2021/08/01 08:34:41;;;;;;;4.07;3.67;;;;;;;18.23;83.63;99720.19;5009712;28;20204;-72
2021/08/01 08:37:06;;;;;;;3.90;3.60;;;;;;;18.25;82.67;99717.84;5008894;28;20214;-73
2021/08/01 08:39:32;;;;;;;6.47;2.67;;;;;;;18.18;82.03;99715.78;5008467;28;20380;-74
2021/08/01 08:41:59;;;;;;;3.63;3.33;;;;;;;18.22;82.95;99722.13;5010701;28;20183;-73
2021/08/01 08:44:25;;;;;;;4.50;3.90;;;;;;;18.32;82.96;99715.91;5011167;28;20650;-73
2021/08/01 08:46:53;;;;;;;4.40;4.00;;;;;;;18.46;82.63;99718.00;5010927;28;20200;-73
2021/08/01 08:49:21;;;;;;;5.00;4.60;;;;;;;18.38;81.95;99719.94;5010826;28;20620;-73
2021/08/01 08:51:48;;;;;;;4.20;3.80;;;;;;;18.42;82.21;99708.91;5010645;28;20643;-72
2021/08/01 08:54:30;;;;;;;3.03;2.73;;;;;;;18.55;81.07;99707.44;5011002;28;20172;-74
2021/08/01 08:56:59;;;;;;;3.07;2.87;;;;;;;18.80;82.10;99713.16;5010551;28;20185;-73
2021/08/01 08:59:26;;;;;;;2.87;2.67;;;;;;;18.87;80.51;99716.00;5010741;28;20191;-73
2021/08/01 09:01:51;;;;;;;3.87;3.57;;;;;;;18.85;81.94;99717.56;5010635;28;20335;-74
2021/08/01 09:04:17;;;;;;;3.40;3.10;;;;;;;18.97;81.25;99717.25;5009666;28;20675;-73
2021/08/01 09:06:43;;;;;;;3.83;3.53;;;;;;;19.10;80.25;99726.03;5010966;28;20246;-73
2021/08/01 09:09:10;;;;;;;1.87;1.77;;;;;;;19.14;78.42;99715.78;5010700;28;20184;-73
2021/08/01 09:11:35;;;;;;;3.40;3.20;;;;;;;19.13;78.00;99720.50;5010479;28;20491;-73
2021/08/01 09:14:01;;;;;;;2.50;2.33;;;;;;;19.21;77.82;99716.59;5010739;28;20180;-73
2021/08/01 09:16:43;;;;;;;2.93;2.73;;;;;;;19.34;78.88;99714.28;5010509;28;20203;-74
2021/08/01 09:19:35;;;;;;;3.60;3.30;;;;;;;19.27;77.72;99717.03;5011328;28;20165;-74
2021/08/01 09:22:22;;;;;;;4.00;3.70;;;;;;;19.15;78.22;99715.38;5014313;28;20273;-73
2021/08/01 09:24:51;;;;;;;4.03;3.73;;;;;;;19.16;77.29;99714.19;5014355;28;20252;-73
2021/08/01 09:27:30;;;;;;;3.20;2.97;;;;;;;19.36;76.88;99713.91;5014459;28;20291;-73
2021/08/01 09:29:56;;;;;;;2.77;2.57;;;;;;;19.44;75.99;99715.53;5014349;28;20176;-73
2021/08/01 09:32:24;;;;;;;3.00;2.80;;;;;;;19.43;75.27;99716.72;5008765;28;20189;-73
2021/08/01 09:34:49;;;;;;;3.40;3.10;;;;;;;19.46;75.79;99711.19;5007033;28;20181;-73
2021/08/01 09:37:35;;;;;;;2.27;2.07;;;;;;;19.40;75.46;99707.22;5005464;28;20557;-73
2021/08/01 09:40:12;;;;;;;2.00;1.90;;;;;;;19.31;75.65;99713.09;5014148;28;20255;-73
2021/08/01 09:42:45;;;;;;;1.73;1.63;;;;;;;19.12;74.14;99704.28;5013908;28;20176;-72
2021/08/01 09:45:12;;;;;;;2.40;2.20;;;;;;;19.16;74.53;99710.63;5013490;28;20215;-73
2021/08/01 09:47:38;;;;;;;2.33;2.13;;;;;;;19.32;75.22;99705.56;5007272;28;20212;-73
2021/08/01 09:50:06;;;;;;;2.13;2.00;;;;;;;19.33;73.53;99704.38;5011889;28;20297;-73
2021/08/01 09:52:31;;;;;;;2.20;2.07;;;;;;;19.28;73.08;99705.56;5013639;28;20603;-73
2021/08/01 09:54:56;;;;;;;1.30;1.20;;;;;;;19.15;73.48;99698.75;5014166;28;20268;-73
2021/08/01 09:57:22;;;;;;;1.60;1.50;;;;;;;19.01;74.21;99705.00;5013723;28;20532;-73
2021/08/01 09:59:48;;;;;;;2.37;2.17;;;;;;;19.12;74.66;99695.97;5013966;28;20177;-73
2021/08/01 10:02:14;;;;;;;2.13;1.93;;;;;;;19.23;74.21;99705.13;5013520;28;20632;-74
2021/08/01 10:04:42;;;;;;;2.20;2.10;;;;;;;19.41;73.29;99697.72;5013589;28;20177;-73
2021/08/01 10:07:13;;;;;;;1.83;1.73;;;;;;;19.66;70.44;99702.56;5012614;28;20495;-73
2021/08/01 10:09:43;;;;;;;1.50;1.40;;;;;;;19.46;69.49;99700.09;5010171;28;20180;-75
2021/08/01 10:12:09;;;;;;;1.33;1.13;;;;;;;19.36;70.29;99694.50;5003515;28;20388;-72
2021/08/01 10:14:35;;;;;;;1.60;1.50;;;;;;;19.65;71.92;99699.00;5012875;28;20173;-75
2021/08/01 10:17:02;;;;;;;1.47;1.37;;;;;;;20.03;70.33;99705.06;5009932;28;20184;-72
2021/08/01 10:19:28;;;;;;;2.33;2.13;;;;;;;20.11;67.45;99690.81;5013231;28;20176;-73
2021/08/01 10:21:57;;;;;;;1.30;1.20;;;;;;;20.24;68.19;99693.19;5013173;28;20184;-72
2021/08/01 10:24:25;;;;;;;1.93;1.83;;;;;;;20.14;68.38;99692.81;5013367;28;20267;-72
2021/08/01 10:26:56;;;;;;;1.93;1.80;;;;;;;20.05;68.04;99692.38;5002170;28;20201;-73
2021/08/01 10:29:29;;;;;;;1.60;1.50;;;;;;;19.91;67.38;99678.50;5002943;28;20521;-75
2021/08/01 10:32:17;;;;;;;2.93;1.83;;;;;;;20.08;67.97;99677.72;5005278;28;20186;-73
2021/08/01 10:34:49;;;;;;;2.17;1.97;;;;;;;20.07;68.29;99669.78;5003479;28;20187;-75
2021/08/01 10:37:21;;;;;;;1.50;1.40;;;;;;;19.91;69.42;99662.66;5006436;28;20177;-76
2021/08/01 10:39:47;;;;;;;4.47;1.83;;;;;;;20.08;69.14;99669.41;5001246;28;20619;-73
2021/08/01 10:42:16;;;;;;;1.50;1.40;;;;;;;20.30;67.54;99674.97;5003551;28;20183;-77
2021/08/01 10:44:42;;;;;;;1.40;1.30;;;;;;;20.02;67.06;99665.44;5005555;28;20199;-73
2021/08/01 10:47:08;;;;;;;1.30;1.20;;;;;;;19.75;67.88;99655.88;5007007;28;20193;-73
2021/08/01 10:49:39;;;;;;;1.57;1.47;;;;;;;19.56;69.29;99660.59;5007155;28;20205;-73
2021/08/01 10:52:07;;;;;;;2.00;1.70;;;;;;;19.47;70.53;99668.44;5012515;28;20172;-72
2021/08/01 10:54:32;;;;;;;1.83;1.73;;;;;;;19.66;71.27;99655.44;5012680;28;20172;-73
2021/08/01 10:57:18;;;;;;;2.10;2.00;;;;;;;20.05;68.28;99652.75;5012612;28;20232;-71
2021/08/01 10:59:43;;;;;;;2.03;1.70;;;;;;;20.38;69.00;99657.13;5012669;28;20165;-73
2021/08/01 11:02:18;;;;;;;1.43;1.33;;;;;;;20.44;67.65;99656.38;5012265;28;20165;-73
2021/08/01 11:04:46;;;;;;;1.70;1.60;;;;;;;20.62;68.90;99650.00;5012458;28;20172;-73
2021/08/01 11:07:32;;;;;;;1.60;1.50;;;;;;;20.92;65.21;99652.34;5012433;28;20200;-73
2021/08/01 11:10:04;;;;;;;2.80;1.73;;;;;;;21.00;65.13;99646.38;5012233;28;20223;-73
2021/08/01 11:12:30;;;;;;;1.43;1.33;;;;;;;20.76;64.60;99639.69;5012234;28;20181;-73
2021/08/01 11:14:56;;;;;;;2.00;1.90;;;;;;;20.56;64.86;99644.09;5012232;28;20215;-73
2021/08/01 11:17:43;;;;;;;1.23;1.10;;;;;;;20.65;64.03;99638.09;5012312;28;20260;-73
2021/08/01 11:20:29;;;;;;;1.50;1.40;;;;;;;20.62;62.44;99642.47;5011943;28;20172;-73
2021/08/01 11:22:55;;;;;;;1.60;1.50;;;;;;;20.46;61.80;99631.78;5007270;28;20203;-73
2021/08/01 11:25:28;;;;;;;1.27;1.17;;;;;;;20.23;63.17;99628.59;5007683;28;20184;-73
2021/08/01 11:28:09;;;;;;;1.20;1.13;;;;;;;20.42;65.28;99646.88;5006633;28;20205;-76